Time;durP1;ratioP1;P1;durP2;ratioP2;P2;SDS_P1;SDS_P2;PMS_P1;PMS_P2;Temp;Humidity;BMP_temperature;BMP_pressure;BME280_temperature;BME280_humidity;BME280_pressure;Samples;Min_cycle;Max_cycle;Signal;HPM_P1;HPM_P2
2023/05/24 03:55:08;;;;;;;10.73;6.75;;;;;;;15.71;100.00;100097.09;6539938;26;20048;-83
2023/05/24 03:58:12;;;;;;;12.00;7.00;;;;;;;15.71;100.00;100097.09;6570715;27;33893;-84
2023/05/24 04:01:15;;;;;;;12.95;7.50;;;;;;;15.74;100.00;100096.66;6565604;27;33806;-84
2023/05/24 04:04:35;;;;;;;11.05;7.12;;;;;;;15.80;100.00;100103.91;6565331;27;34179;-84
2023/05/24 04:07:39;;;;;;;15.90;7.18;;;;;;;15.83;100.00;100111.63;6562835;27;33821;-87
2023/05/24 04:10:42;;;;;;;11.32;7.10;;;;;;;15.91;100.00;100113.22;6585778;27;34398;-87
2023/05/24 04:13:46;;;;;;;10.63;6.95;;;;;;;16.04;100.00;100124.81;6524517;27;33774;-88
2023/05/24 04:16:48;;;;;;;12.32;7.28;;;;;;;16.21;100.00;100118.87;6559261;27;34818;-84
2023/05/24 04:19:54;;;;;;;14.07;7.75;;;;;;;16.23;100.00;100122.16;6578837;27;33976;-84
2023/05/24 04:22:58;;;;;;;12.37;8.50;;;;;;;16.36;100.00;100118.53;6578556;27;34276;-84
2023/05/24 04:26:00;;;;;;;12.23;7.03;;;;;;;16.38;100.00;100121.84;6578495;27;33968;-84
2023/05/24 04:29:04;;;;;;;12.98;8.30;;;;;;;16.47;100.00;100124.06;6577732;27;34896;-84
2023/05/24 04:32:08;;;;;;;14.60;8.30;;;;;;;16.49;100.00;100129.25;6559937;27;33743;-84
2023/05/24 04:35:12;;;;;;;13.25;8.48;;;;;;;16.57;100.00;100128.16;6559305;27;34598;-84
2023/05/24 04:38:15;;;;;;;14.82;8.45;;;;;;;16.63;100.00;100143.56;6578118;27;34043;-84
2023/05/24 04:41:21;;;;;;;12.45;8.02;;;;;;;16.66;100.00;100143.94;6558921;27;33784;-83
2023/05/24 04:44:23;;;;;;;14.30;8.85;;;;;;;16.79;100.00;100137.59;6568843;27;33849;-83
2023/05/24 04:47:27;;;;;;;13.32;8.10;;;;;;;16.91;100.00;100140.41;6586455;27;34783;-83
2023/05/24 04:50:29;;;;;;;15.52;9.25;;;;;;;16.96;100.00;100141.41;6586563;27;34049;-83
2023/05/24 04:53:32;;;;;;;11.57;7.87;;;;;;;17.01;100.00;100138.00;6587362;26;34701;-83
2023/05/24 04:56:39;;;;;;;13.68;9.40;;;;;;;17.02;100.00;100142.37;6587786;26;34346;-83
2023/05/24 04:59:42;;;;;;;16.73;9.18;;;;;;;17.16;100.00;100151.22;6614953;26;33926;-83
2023/05/24 05:02:45;;;;;;;15.30;8.50;;;;;;;17.28;100.00;100149.41;6633953;26;34129;-83
2023/05/24 05:05:48;;;;;;;14.70;9.10;;;;;;;17.35;100.00;100152.06;6614625;26;35381;-84
2023/05/24 05:08:51;;;;;;;12.48;8.23;;;;;;;17.45;100.00;100141.44;6633471;26;33872;-83
2023/05/24 05:11:55;;;;;;;13.07;8.63;;;;;;;17.71;100.00;100150.34;6634688;26;34081;-83
2023/05/24 05:14:57;;;;;;;14.57;8.90;;;;;;;17.80;100.00;100160.69;6613718;26;33856;-83
2023/05/24 05:18:00;;;;;;;16.73;9.50;;;;;;;18.04;100.00;100155.34;6617980;26;34051;-83
2023/05/24 05:21:03;;;;;;;16.35;9.50;;;;;;;18.13;100.00;100159.37;6647090;26;34243;-83
2023/05/24 05:24:06;;;;;;;14.35;9.00;;;;;;;17.99;100.00;100147.00;6635628;26;35434;-83
2023/05/24 05:27:09;;;;;;;12.68;9.57;;;;;;;17.86;100.00;100156.22;6595338;26;33777;-83
2023/05/24 05:30:12;;;;;;;13.38;9.68;;;;;;;17.88;100.00;100148.66;6633949;26;35448;-83
2023/05/24 05:33:15;;;;;;;16.40;9.57;;;;;;;17.84;100.00;100151.03;6614335;26;33462;-83
2023/05/24 05:36:18;;;;;;;15.45;10.13;;;;;;;17.77;100.00;100154.84;6613976;26;34044;-84
2023/05/24 05:39:21;;;;;;;14.07;9.88;;;;;;;17.70;100.00;100154.97;6635489;26;33969;-84
2023/05/24 05:42:24;;;;;;;15.52;9.13;;;;;;;17.82;100.00;100153.13;6614441;26;34758;-84
2023/05/24 05:45:27;;;;;;;16.73;9.25;;;;;;;18.03;100.00;100149.06;6615586;26;33866;-84
2023/05/24 05:48:30;;;;;;;15.00;9.73;;;;;;;18.05;100.00;100140.66;6615561;26;34117;-84
2023/05/24 05:51:33;;;;;;;11.52;8.23;;;;;;;18.19;100.00;100153.00;6620614;26;33983;-84
2023/05/24 05:54:36;;;;;;;15.18;9.00;;;;;;;18.26;100.00;100166.53;6627389;27;35338;-84
2023/05/24 05:57:39;;;;;;;15.88;8.20;;;;;;;18.33;100.00;100165.34;6608346;27;35226;-84
2023/05/24 06:00:42;;;;;;;13.32;8.38;;;;;;;18.51;100.00;100166.31;6611780;27;33850;-84
2023/05/24 06:03:45;;;;;;;11.15;8.45;;;;;;;18.63;100.00;100171.78;6606975;27;34681;-84
2023/05/24 06:06:48;;;;;;;13.88;8.23;;;;;;;18.72;100.00;100167.66;6608624;27;35350;-84
2023/05/24 06:09:51;;;;;;;13.30;8.50;;;;;;;19.01;100.00;100165.87;6593523;27;34260;-84
2023/05/24 06:12:54;;;;;;;12.18;7.78;;;;;;;18.93;100.00;100171.72;6604776;27;33721;-84
2023/05/24 06:15:58;;;;;;;10.02;8.23;;;;;;;19.32;100.00;100167.41;6622400;27;33562;-84
2023/05/24 06:19:01;;;;;;;12.23;8.20;;;;;;;19.61;100.00;100175.63;6614489;27;35316;-84
2023/05/24 06:22:08;;;;;;;10.35;7.95;;;;;;;19.75;100.00;100174.31;6606151;27;34132;-88
2023/05/24 06:25:14;;;;;;;11.00;8.10;;;;;;;19.65;100.00;100177.66;6604220;27;33927;-88
2023/05/24 06:28:17;;;;;;;10.80;8.20;;;;;;;19.67;100.00;100180.16;6604910;27;33874;-89
2023/05/24 06:31:20;;;;;;;10.43;7.60;;;;;;;19.83;100.00;100186.75;6603727;27;34734;-85
2023/05/24 06:34:23;;;;;;;13.20;8.07;;;;;;;19.84;100.00;100181.03;6603254;27;33417;-85
2023/05/24 06:37:29;;;;;;;11.27;7.57;;;;;;;19.96;100.00;100182.91;6587902;27;34191;-85
2023/05/24 06:40:33;;;;;;;10.00;7.40;;;;;;;19.96;100.00;100185.63;6609198;27;31946;-84
2023/05/24 06:43:35;;;;;;;11.23;7.70;;;;;;;20.15;100.00;100187.94;6603781;27;33742;-84
2023/05/24 06:46:39;;;;;;;10.82;7.85;;;;;;;20.32;100.00;100189.84;6567443;27;34523;-84
2023/05/24 06:49:42;;;;;;;12.15;7.40;;;;;;;20.50;100.00;100191.50;6604712;27;34708;-83
2023/05/24 06:52:45;;;;;;;10.85;7.43;;;;;;;20.42;100.00;100190.03;6586154;27;33680;-84
2023/05/24 06:55:48;;;;;;;10.95;7.15;;;;;;;20.58;100.00;100194.69;6627227;26;34201;-83
2023/05/24 06:58:51;;;;;;;9.73;7.37;;;;;;;20.58;100.00;100185.66;6632745;26;33836;-84
2023/05/24 07:01:56;;;;;;;9.45;7.28;;;;;;;20.64;100.00;100200.25;6613972;26;33941;-83
2023/05/24 07:05:02;;;;;;;12.40;7.53;;;;;;;20.59;100.00;100196.37;6615561;26;33495;-84
2023/05/24 07:08:05;;;;;;;10.10;6.62;;;;;;;20.73;100.00;100205.06;6634429;26;33612;-83
2023/05/24 07:11:08;;;;;;;10.50;7.40;;;;;;;20.70;100.00;100202.81;6615368;26;34513;-83
2023/05/24 07:14:11;;;;;;;9.20;6.75;;;;;;;20.95;100.00;100207.88;6605528;26;33936;-83
2023/05/24 07:17:14;;;;;;;12.00;7.18;;;;;;;20.91;100.00;100205.88;6600941;26;33677;-83
2023/05/24 07:20:17;;;;;;;12.85;7.43;;;;;;;20.79;100.00;100205.97;6615551;26;33945;-83
2023/05/24 07:23:20;;;;;;;10.57;7.53;;;;;;;21.08;100.00;100211.34;6607231;26;34006;-83
2023/05/24 07:26:23;;;;;;;9.07;8.02;;;;;;;21.14;100.00;100205.66;6622723;26;35041;-83
2023/05/24 07:29:26;;;;;;;10.50;7.70;;;;;;;21.00;100.00;100216.16;6635924;26;33544;-83
2023/05/24 07:32:29;;;;;;;10.30;7.53;;;;;;;20.89;100.00;100224.47;6596172;26;33855;-83
2023/05/24 07:35:32;;;;;;;8.63;7.05;;;;;;;20.95;100.00;100228.94;6613861;26;34004;-84
2023/05/24 07:38:35;;;;;;;12.63;7.93;;;;;;;21.02;100.00;100224.94;6613848;26;34003;-84
2023/05/24 07:41:39;;;;;;;13.25;8.40;;;;;;;21.01;100.00;100231.50;6594966;26;33569;-83
2023/05/24 07:44:41;;;;;;;12.88;7.75;;;;;;;21.09;100.00;100235.72;6577329;26;34701;-83
2023/05/24 07:47:44;;;;;;;13.30;8.18;;;;;;;21.28;98.96;100220.66;6613469;26;33877;-85
2023/05/24 07:50:51;;;;;;;12.18;6.95;;;;;;;21.69;98.38;100229.44;6595514;26;34629;-84
2023/05/24 07:53:54;;;;;;;11.55;7.30;;;;;;;22.17;94.70;100232.50;6613805;26;33826;-85
2023/05/24 07:56:57;;;;;;;10.35;6.85;;;;;;;22.42;92.23;100235.50;6613426;26;35662;-85
2023/05/24 08:00:08;;;;;;;11.05;8.05;;;;;;;22.48;92.87;100235.56;6598676;26;33585;-84
2023/05/24 08:03:14;;;;;;;11.63;7.55;;;;;;;22.11;93.08;100239.81;6619838;26;33842;-84
2023/05/24 08:06:17;;;;;;;10.35;7.72;;;;;;;22.23;92.65;100230.63;6620674;26;34421;-84
2023/05/24 08:09:21;;;;;;;10.18;7.90;;;;;;;22.40;93.69;100242.31;6635827;26;34947;-85
2023/05/24 08:12:24;;;;;;;11.12;8.50;;;;;;;22.32;92.92;100242.81;6618010;26;34078;-85
2023/05/24 08:15:27;;;;;;;11.98;7.72;;;;;;;22.62;90.61;100240.34;6612620;26;33700;-85
2023/05/24 08:18:30;;;;;;;10.43;7.82;;;;;;;22.69;90.14;100242.88;6613849;26;34723;-84
2023/05/24 08:21:33;;;;;;;11.05;8.00;;;;;;;22.44;89.83;100251.72;6594889;26;34409;-85
2023/05/24 08:24:36;;;;;;;11.07;7.65;;;;;;;22.49;90.66;100250.91;6614014;26;35136;-85
2023/05/24 08:27:39;;;;;;;12.55;7.40;;;;;;;22.88;89.05;100251.53;6613184;26;34965;-89
2023/05/24 08:30:43;;;;;;;10.93;8.10;;;;;;;23.23;85.98;100247.44;6633243;26;34053;-89
2023/05/24 08:33:49;;;;;;;11.50;7.55;;;;;;;22.94;85.40;100249.66;6633600;26;33979;-89
2023/05/24 08:36:52;;;;;;;9.52;7.03;;;;;;;22.52;88.45;100264.97;6612339;26;33929;-85
2023/05/24 08:39:55;;;;;;;11.12;7.05;;;;;;;22.93;85.31;100265.28;6605599;26;33812;-85
2023/05/24 08:43:00;;;;;;;10.65;6.22;;;;;;;22.51;86.29;100268.78;6617372;26;35229;-85
2023/05/24 08:46:04;;;;;;;9.25;7.15;;;;;;;22.54;86.70;100271.00;6637374;26;35547;-84
2023/05/24 08:49:11;;;;;;;12.45;7.03;;;;;;;22.63;86.93;100269.44;6634207;26;35213;-84
2023/05/24 08:52:15;;;;;;;7.45;6.07;;;;;;;22.71;86.01;100265.41;6633483;26;34605;-84
2023/05/24 08:55:18;;;;;;;8.15;6.18;;;;;;;22.53;85.67;100274.00;6612816;26;33699;-84
2023/05/24 08:58:21;;;;;;;8.27;5.82;;;;;;;22.65;85.95;100274.69;6633315;26;33571;-84
2023/05/24 09:01:25;;;;;;;7.40;5.85;;;;;;;22.55;85.42;100280.06;6633398;26;34655;-84
2023/05/24 09:04:32;;;;;;;9.27;6.03;;;;;;;22.44;87.59;100283.81;6614350;26;33589;-84
2023/05/24 09:07:36;;;;;;;6.50;5.72;;;;;;;22.39;85.46;100288.13;6614012;26;34449;-84
2023/05/24 09:10:39;;;;;;;8.32;5.87;;;;;;;22.57;84.73;100284.19;6634307;26;33926;-85
2023/05/24 09:13:57;;;;;;;9.65;5.70;;;;;;;22.60;85.01;100293.81;6619112;26;33800;-84
2023/05/24 09:17:01;;;;;;;10.07;5.80;;;;;;;22.95;84.14;100281.53;6617084;26;33907;-84
2023/05/24 09:20:09;;;;;;;8.60;5.78;;;;;;;22.57;85.19;100288.84;6633282;26;35663;-85
2023/05/24 09:23:14;;;;;;;8.60;5.45;;;;;;;22.78;85.09;100284.37;6614288;26;34844;-85
2023/05/24 09:26:17;;;;;;;6.87;5.40;;;;;;;22.76;84.56;100273.69;6614228;26;33987;-85
2023/05/24 09:29:23;;;;;;;6.20;5.32;;;;;;;22.81;83.66;100272.88;6633363;26;33616;-85
2023/05/24 09:32:27;;;;;;;6.85;5.00;;;;;;;23.35;82.17;100267.28;6636796;26;34529;-87
2023/05/24 09:35:30;;;;;;;6.93;4.97;;;;;;;23.68;78.60;100270.75;6614130;26;34926;-85
2023/05/24 09:38:34;;;;;;;6.70;5.03;;;;;;;23.43;77.95;100274.19;6595909;26;34456;-85
2023/05/24 09:41:38;;;;;;;6.70;4.85;;;;;;;23.57;78.59;100269.03;6613980;26;34697;-85
2023/05/24 09:44:42;;;;;;;5.90;5.10;;;;;;;23.64;78.55;100264.97;6613703;26;33888;-85
2023/05/24 09:47:45;;;;;;;6.25;4.97;;;;;;;23.87;77.09;100269.25;6595761;26;33675;-85
2023/05/24 09:51:06;;;;;;;5.90;5.05;;;;;;;23.97;76.51;100260.19;6595465;26;34700;-85
2023/05/24 09:54:09;;;;;;;8.95;5.00;;;;;;;24.45;78.97;100258.13;6632524;26;35506;-87
2023/05/24 09:57:15;;;;;;;6.82;5.12;;;;;;;24.63;75.21;100265.88;6595553;26;34631;-84
2023/05/24 10:00:22;;;;;;;7.18;5.00;;;;;;;24.53;74.80;100273.28;6613885;26;33930;-88
2023/05/24 10:03:26;;;;;;;7.05;4.72;;;;;;;24.21;74.62;100268.78;6617166;26;34517;-89
2023/05/24 10:06:33;;;;;;;6.87;5.30;;;;;;;24.48;75.04;100270.53;6598812;26;33681;-89
2023/05/24 10:09:37;;;;;;;6.68;4.62;;;;;;;24.79;73.77;100285.16;6637442;26;34485;-85
2023/05/24 10:12:42;;;;;;;6.97;5.07;;;;;;;24.96;71.20;100276.62;6638203;26;34265;-85
2023/05/24 10:15:45;;;;;;;7.90;4.70;;;;;;;25.07;71.99;100283.78;6615726;26;34268;-85
2023/05/24 10:18:49;;;;;;;4.97;4.40;;;;;;;25.27;71.95;100274.69;6595836;26;33930;-85
2023/05/24 10:21:55;;;;;;;6.53;4.70;;;;;;;25.34;72.00;100270.53;6633156;26;33451;-85
2023/05/24 10:24:58;;;;;;;9.45;4.90;;;;;;;25.46;68.50;100264.72;6633491;26;35068;-85
2023/05/24 10:28:09;;;;;;;5.35;4.47;;;;;;;25.40;67.21;100268.59;6633245;26;34181;-85
2023/05/24 10:31:16;;;;;;;6.75;4.30;;;;;;;26.05;65.65;100254.88;6632438;26;33868;-86
2023/05/24 10:34:20;;;;;;;6.50;4.43;;;;;;;25.76;65.94;100272.06;6632409;26;34688;-85
2023/05/24 10:37:25;;;;;;;8.05;4.15;;;;;;;26.07;64.62;100271.16;6613786;26;33518;-85
2023/05/24 10:40:28;;;;;;;8.90;4.15;;;;;;;25.86;63.02;100268.50;6634425;26;33601;-85
2023/05/24 10:43:31;;;;;;;5.87;3.80;;;;;;;26.40;62.12;100266.81;6615575;26;33933;-87
2023/05/24 10:47:02;;;;;;;7.57;4.00;;;;;;;27.12;60.77;100265.19;6615891;26;34029;-87
2023/05/24 10:50:18;;;;;;;5.22;4.40;;;;;;;27.14;61.18;100264.88;6634497;26;34047;-87
2023/05/24 10:53:25;;;;;;;6.80;3.97;;;;;;;27.31;60.20;100258.94;6615110;26;33757;-87
2023/05/24 10:56:27;;;;;;;5.00;4.05;;;;;;;27.29;58.61;100253.72;6634136;26;33690;-87
2023/05/24 10:59:36;;;;;;;5.28;3.85;;;;;;;27.48;58.07;100258.47;6595233;26;34778;-87
2023/05/24 11:02:39;;;;;;;6.50;4.35;;;;;;;27.88;55.65;100259.97;6633891;26;34103;-87
2023/05/24 11:05:45;;;;;;;4.40;3.80;;;;;;;27.88;54.84;100259.97;6596512;26;33898;-87
2023/05/24 11:08:48;;;;;;;6.00;3.87;;;;;;;28.34;51.68;100258.50;6634943;26;33519;-87
2023/05/24 11:11:58;;;;;;;7.65;3.90;;;;;;;28.70;51.00;100244.97;6596449;26;33715;-87
2023/05/24 11:15:02;;;;;;;4.40;3.62;;;;;;;28.75;49.12;100246.81;6656545;26;34652;-87
2023/05/24 11:18:08;;;;;;;6.12;3.87;;;;;;;28.92;49.23;100255.41;6606656;26;35305;-91
2023/05/24 11:21:11;;;;;;;6.20;4.05;;;;;;;29.27;51.05;100245.62;6634197;26;34056;-91
2023/05/24 11:24:19;;;;;;;6.32;3.70;;;;;;;30.51;46.81;100244.75;6598676;26;33659;-88
2023/05/24 11:27:22;;;;;;;4.78;3.30;;;;;;;30.94;42.97;100242.28;6596213;26;34094;-87
2023/05/24 11:30:25;;;;;;;4.12;3.60;;;;;;;32.52;39.17;100247.25;6590911;26;33460;-87
2023/05/24 11:33:28;;;;;;;5.25;3.65;;;;;;;32.22;39.32;100235.91;6641649;26;35086;-88
2023/05/24 11:36:32;;;;;;;4.05;3.67;;;;;;;32.75;38.98;100237.53;6638093;26;35491;-87
2023/05/24 11:39:36;;;;;;;6.25;3.20;;;;;;;33.40;36.82;100218.00;6620081;26;33797;-86
2023/05/24 11:42:43;;;;;;;3.45;3.10;;;;;;;34.47;34.11;100216.69;6634337;26;33461;-86
2023/05/24 11:45:48;;;;;;;3.30;3.00;;;;;;;33.88;34.08;100216.81;6613228;26;35035;-86
2023/05/24 11:48:58;;;;;;;2.95;2.75;;;;;;;35.14;32.76;100216.72;6613662;26;34544;-86
2023/05/24 11:52:01;;;;;;;5.85;3.70;;;;;;;35.17;31.74;100213.22;6633552;26;33981;-86
2023/05/24 11:55:06;;;;;;;3.33;2.75;;;;;;;35.85;31.07;100207.88;6632995;26;33536;-87
2023/05/24 11:58:23;;;;;;;3.83;3.15;;;;;;;36.27;31.62;100207.56;6619052;26;33577;-87
2023/05/24 12:01:26;;;;;;;3.15;2.85;;;;;;;36.10;31.82;100213.47;6633930;26;34021;-87
2023/05/24 12:04:31;;;;;;;2.78;2.58;;;;;;;36.90;30.05;100218.16;6617945;26;33810;-86
2023/05/24 12:07:35;;;;;;;3.30;3.00;;;;;;;37.99;27.75;100211.28;6636974;26;33702;-86
2023/05/24 12:10:40;;;;;;;4.03;3.10;;;;;;;35.14;31.67;100227.91;6600786;26;33900;-86
2023/05/24 12:13:43;;;;;;;3.08;2.87;;;;;;;34.32;33.66;100222.91;6638623;26;33661;-86
2023/05/24 12:16:46;;;;;;;3.65;3.30;;;;;;;35.84;29.77;100216.63;6635518;26;33903;-87
2023/05/24 12:19:50;;;;;;;4.05;2.83;;;;;;;36.63;29.16;100216.22;6614899;26;34679;-86
2023/05/24 12:22:54;;;;;;;4.47;3.20;;;;;;;36.64;28.69;100221.47;6635625;26;33934;-86
2023/05/24 12:26:01;;;;;;;3.80;3.22;;;;;;;37.21;28.05;100214.59;6595377;26;33886;-86
2023/05/24 12:29:04;;;;;;;3.73;3.33;;;;;;;35.64;30.56;100215.59;6633755;26;34706;-86
2023/05/24 12:32:11;;;;;;;3.37;3.08;;;;;;;32.71;34.56;100219.03;6596314;26;33786;-86
2023/05/24 12:35:19;;;;;;;3.30;3.00;;;;;;;30.79;38.16;100228.78;6633683;26;33922;-86
2023/05/24 12:38:24;;;;;;;4.03;3.10;;;;;;;32.75;34.91;100209.66;6637992;26;34009;-86
2023/05/24 12:41:29;;;;;;;3.70;3.20;;;;;;;33.05;34.57;100209.78;6638407;26;34805;-86
2023/05/24 12:44:36;;;;;;;4.05;3.12;;;;;;;33.27;34.55;100203.13;6646478;26;34925;-86
2023/05/24 12:47:39;;;;;;;3.20;2.90;;;;;;;32.15;36.24;100202.16;6622739;26;35965;-86
2023/05/24 12:50:42;;;;;;;4.30;3.30;;;;;;;31.15;39.06;100202.78;6614121;26;34601;-89
2023/05/24 12:53:46;;;;;;;3.67;3.00;;;;;;;31.25;38.08;100202.53;6600531;26;34369;-90
2023/05/24 12:56:50;;;;;;;3.55;3.10;;;;;;;34.50;33.36;100187.22;6614694;26;34037;-90
2023/05/24 12:59:56;;;;;;;3.35;2.75;;;;;;;37.10;28.18;100196.66;6615217;26;33856;-87
2023/05/24 13:02:59;;;;;;;3.28;2.97;;;;;;;38.26;27.24;100193.41;6614641;26;33508;-86
2023/05/24 13:06:05;;;;;;;3.50;3.12;;;;;;;36.76;27.67;100184.91;6596728;26;33510;-86
2023/05/24 13:09:07;;;;;;;2.87;2.67;;;;;;;36.00;29.23;100189.50;6600145;26;34552;-87
2023/05/24 13:12:11;;;;;;;3.12;2.85;;;;;;;37.58;27.91;100194.66;6615826;26;34008;-86
2023/05/24 13:15:14;;;;;;;3.20;2.78;;;;;;;39.18;25.72;100190.75;6599038;26;33956;-85
2023/05/24 13:18:17;;;;;;;3.92;2.58;;;;;;;38.51;25.51;100185.50;6618770;26;35027;-85
2023/05/24 13:21:20;;;;;;;2.83;2.62;;;;;;;37.73;26.40;100178.12;6638558;26;33736;-85
2023/05/24 13:24:23;;;;;;;3.83;2.58;;;;;;;37.90;26.23;100183.34;6649898;26;34706;-86
2023/05/24 13:27:26;;;;;;;3.58;2.83;;;;;;;38.33;25.94;100187.91;6631782;26;34246;-86
2023/05/24 13:30:29;;;;;;;3.47;2.62;;;;;;;38.44;25.25;100179.72;6632567;26;33725;-86
2023/05/24 13:33:34;;;;;;;2.83;2.50;;;;;;;38.85;25.07;100182.06;6629730;26;34083;-86
2023/05/24 13:36:37;;;;;;;2.92;2.58;;;;;;;37.72;25.96;100182.94;6634210;26;34214;-85
2023/05/24 13:39:41;;;;;;;2.60;2.40;;;;;;;35.07;29.75;100191.28;6638223;26;34017;-85
2023/05/24 13:42:44;;;;;;;2.80;2.60;;;;;;;35.73;28.72;100179.87;6621071;26;34319;-85
2023/05/24 13:45:47;;;;;;;2.80;2.55;;;;;;;36.08;28.03;100176.56;6637278;26;34920;-85
2023/05/24 13:48:50;;;;;;;3.40;2.67;;;;;;;36.43;27.80;100170.34;6601148;26;34925;-86
2023/05/24 13:51:53;;;;;;;3.17;2.50;;;;;;;37.54;26.27;100168.50;6601593;26;33939;-85
2023/05/24 13:55:03;;;;;;;3.70;2.50;;;;;;;37.71;26.15;100174.91;6587264;27;34025;-85
2023/05/24 13:58:15;;;;;;;4.32;2.50;;;;;;;37.13;26.66;100167.88;6607125;27;33412;-84
2023/05/24 14:01:18;;;;;;;2.62;2.42;;;;;;;36.07;27.91;100160.94;6596841;27;35598;-86
2023/05/24 14:04:22;;;;;;;2.92;2.72;;;;;;;34.16;30.38;100168.78;6590784;27;34278;-85
2023/05/24 14:07:24;;;;;;;3.40;2.80;;;;;;;32.77;32.86;100170.31;6612691;27;34117;-84
2023/05/24 14:10:28;;;;;;;3.53;2.60;;;;;;;31.83;34.75;100170.81;6610710;27;34090;-84
2023/05/24 14:13:30;;;;;;;3.25;2.58;;;;;;;31.61;35.58;100168.94;6589100;27;33853;-85
2023/05/24 14:16:54;;;;;;;5.05;2.72;;;;;;;30.50;37.74;100174.44;6606715;27;34663;-84
2023/05/24 14:19:57;;;;;;;4.05;3.03;;;;;;;29.14;40.14;100161.34;6626772;26;35030;-85
2023/05/24 14:23:00;;;;;;;6.45;3.47;;;;;;;28.50;41.31;100164.97;6614418;26;35438;-85
2023/05/24 14:26:03;;;;;;;3.53;3.03;;;;;;;27.77;43.32;100170.72;6586589;27;33674;-84
2023/05/24 14:29:06;;;;;;;4.40;3.28;;;;;;;27.73;43.44;100169.69;6605236;27;34117;-84
2023/05/24 14:32:10;;;;;;;3.65;2.90;;;;;;;27.33;45.41;100165.47;6607893;27;33921;-85
2023/05/24 14:35:13;;;;;;;3.72;3.08;;;;;;;26.70;46.89;100174.66;6586936;27;34577;-85
2023/05/24 14:38:16;;;;;;;4.47;3.62;;;;;;;26.21;48.94;100178.38;6605463;27;33947;-85
2023/05/24 14:41:19;;;;;;;3.47;3.17;;;;;;;25.80;49.70;100181.34;6605496;27;35017;-89
2023/05/24 14:44:22;;;;;;;4.60;2.85;;;;;;;26.08;49.25;100181.75;6586185;27;34891;-89
2023/05/24 14:47:25;;;;;;;7.53;3.17;;;;;;;25.90;49.86;100186.81;6594285;27;269042;-89
2023/05/24 14:50:28;;;;;;;3.65;3.25;;;;;;;25.91;49.64;100185.69;6603903;27;33910;-85
2023/05/24 14:53:33;;;;;;;3.37;3.08;;;;;;;25.79;50.55;100182.44;6603619;26;35020;-85
2023/05/24 14:56:36;;;;;;;4.12;3.55;;;;;;;25.64;50.71;100191.59;6613145;26;33997;-85
2023/05/24 14:59:39;;;;;;;3.35;3.00;;;;;;;25.60;50.13;100193.28;6613462;26;33466;-85
2023/05/24 15:02:42;;;;;;;3.53;2.97;;;;;;;25.33;51.37;100188.12;6598297;26;34295;-85
2023/05/24 15:05:45;;;;;;;3.53;3.05;;;;;;;25.33;53.24;100202.75;6613606;26;33828;-85
2023/05/24 15:08:48;;;;;;;3.33;3.03;;;;;;;25.34;51.88;100206.34;6613254;26;34740;-85
2023/05/24 15:11:51;;;;;;;4.57;3.30;;;;;;;25.32;51.23;100197.50;6594949;26;33602;-85
2023/05/24 15:14:53;;;;;;;5.93;3.20;;;;;;;25.02;51.56;100201.97;6612919;26;33616;-84
2023/05/24 15:17:58;;;;;;;4.05;3.20;;;;;;;24.84;52.59;100202.56;6595162;26;33962;-84
2023/05/24 15:21:01;;;;;;;4.43;3.58;;;;;;;24.82;52.62;100204.75;6596781;26;33967;-84
2023/05/24 15:24:06;;;;;;;3.37;3.08;;;;;;;24.56;52.34;100201.19;6579224;26;34022;-85
2023/05/24 15:27:09;;;;;;;3.20;3.00;;;;;;;24.34;53.54;100202.25;6596534;26;34661;-85
2023/05/24 15:30:13;;;;;;;4.62;3.05;;;;;;;24.25;54.31;100201.12;6596011;26;35023;-84
2023/05/24 15:33:15;;;;;;;3.62;3.08;;;;;;;24.08;54.94;100204.13;6596429;26;34710;-85
2023/05/24 15:36:19;;;;;;;5.60;3.40;;;;;;;23.92;55.71;100210.66;6597814;26;34396;-84
2023/05/24 15:39:21;;;;;;;4.95;3.25;;;;;;;23.80;56.40;100204.59;6614293;26;33951;-85
2023/05/24 15:42:24;;;;;;;3.40;2.90;;;;;;;23.85;56.19;100210.94;6614188;26;35690;-85
2023/05/24 15:45:27;;;;;;;3.83;3.45;;;;;;;23.64;56.84;100212.75;6614323;26;33522;-84
2023/05/24 15:48:30;;;;;;;3.50;3.15;;;;;;;23.58;57.07;100211.09;6578365;26;32534;-84
2023/05/24 15:51:35;;;;;;;3.47;3.17;;;;;;;23.46;56.52;100213.22;6635132;26;34021;-84
